createdAt,value
2022-12-25T00:00:26.393Z,62.57
2022-12-25T00:03:32.887Z,33.53
2022-12-25T00:06:39.338Z,57.83
2022-12-25T00:09:47.064Z,51.57
2022-12-25T00:12:53.684Z,45.87
2022-12-25T00:16:00.290Z,42.83
2022-12-25T00:19:06.516Z,32.93
2022-12-25T00:22:12.919Z,26.33
2022-12-25T00:25:20.500Z,31.60
2022-12-25T00:28:27.421Z,29.10
2022-12-25T00:31:34.829Z,33.63
2022-12-25T00:34:41.000Z,28.03
2022-12-25T00:37:47.149Z,44.90
2022-12-25T00:40:55.364Z,34.77
2022-12-25T00:44:01.460Z,39.97
2022-12-25T00:47:07.911Z,31.90
2022-12-25T00:50:14.229Z,29.17
2022-12-25T00:53:20.663Z,41.60
2022-12-25T00:56:28.298Z,34.60
2022-12-25T00:59:35.194Z,42.53
2022-12-25T01:02:41.620Z,34.47
2022-12-25T01:05:56.936Z,32.70
2022-12-25T01:09:16.917Z,37.73
2022-12-25T01:12:24.386Z,24.33
2022-12-25T01:15:30.975Z,47.87
2022-12-25T01:18:38.111Z,40.20
2022-12-25T01:21:44.478Z,36.83
2022-12-25T01:24:51.239Z,34.70
2022-12-25T01:27:59.007Z,23.33
2022-12-25T01:31:06.791Z,20.97
2022-12-25T01:34:12.883Z,19.00
2022-12-25T01:37:19.358Z,28.67
2022-12-25T01:40:26.205Z,26.97
2022-12-25T01:43:34.914Z,28.80
2022-12-25T01:46:41.446Z,43.47
2022-12-25T01:49:51.059Z,28.73
2022-12-25T01:52:59.155Z,25.50
2022-12-25T01:56:09.275Z,42.80
2022-12-25T01:59:20.861Z,36.17
2022-12-25T02:02:27.417Z,39.50
2022-12-25T02:05:35.622Z,50.63
2022-12-25T02:08:42.242Z,33.43
2022-12-25T02:12:00.818Z,41.03
2022-12-25T02:15:12.477Z,50.33
2022-12-25T02:18:25.499Z,38.60
2022-12-25T02:21:57.207Z,37.40
2022-12-25T02:25:22.307Z,29.53
2022-12-25T02:28:36.207Z,25.20
2022-12-25T02:31:49.825Z,29.40
2022-12-25T02:35:03.473Z,20.67
2022-12-25T02:38:17.030Z,24.33
2022-12-25T02:41:22.768Z,26.07
2022-12-25T02:44:49.636Z,26.13
2022-12-25T02:48:13.314Z,31.33
2022-12-25T02:51:39.727Z,31.63
2022-12-25T02:55:07.922Z,30.47
2022-12-25T02:58:36.416Z,23.67
2022-12-25T03:02:02.616Z,14.93
2022-12-25T03:05:30.927Z,19.57
2022-12-25T03:08:41.905Z,12.93
2022-12-25T03:11:54.700Z,16.40
2022-12-25T03:15:18.414Z,25.20
2022-12-25T03:18:29.725Z,19.90
2022-12-25T03:21:53.253Z,24.87
2022-12-25T03:25:17.391Z,23.40
2022-12-25T03:28:23.686Z,22.10
2022-12-25T03:31:39.293Z,24.07
2022-12-25T03:35:12.019Z,22.00
2022-12-25T03:38:46.364Z,17.60
2022-12-25T03:42:16.467Z,13.03
2022-12-25T03:45:47.576Z,21.07
2022-12-25T03:49:19.493Z,13.77
2022-12-25T03:52:47.161Z,28.87
2022-12-25T03:56:12.505Z,18.33
2022-12-25T03:59:38.262Z,18.63
2022-12-25T04:03:02.088Z,12.50
2022-12-25T04:06:26.032Z,13.73
2022-12-25T04:09:50.913Z,20.27
2022-12-25T04:13:14.929Z,15.70
2022-12-25T04:16:38.557Z,14.20
2022-12-25T04:20:02.733Z,22.63
2022-12-25T04:23:26.486Z,16.77
2022-12-25T04:26:50.743Z,21.73
2022-12-25T04:30:13.979Z,15.77
2022-12-25T04:33:37.881Z,25.33
2022-12-25T04:36:45.041Z,21.87
2022-12-25T04:39:51.232Z,22.27
2022-12-25T04:42:59.115Z,45.17
2022-12-25T04:46:06.735Z,104.33
2022-12-25T04:49:13.134Z,64.27
2022-12-25T04:52:19.334Z,75.77
2022-12-25T04:55:25.657Z,44.37
2022-12-25T04:58:34.288Z,59.57
2022-12-25T05:01:40.761Z,73.90
2022-12-25T05:04:47.930Z,57.23
2022-12-25T05:07:54.112Z,32.87
2022-12-25T05:11:00.968Z,46.93
2022-12-25T05:14:08.333Z,44.33
2022-12-25T05:17:15.178Z,44.37
2022-12-25T05:20:21.552Z,46.70
2022-12-25T05:23:27.882Z,51.83
2022-12-25T05:26:34.007Z,62.13
2022-12-25T05:29:41.762Z,69.47
2022-12-25T05:32:48.943Z,75.07
2022-12-25T05:35:55.189Z,97.43
2022-12-25T05:39:01.714Z,59.70
2022-12-25T05:42:07.950Z,42.73
2022-12-25T05:45:15.860Z,70.07
2022-12-25T05:48:22.056Z,72.53
2022-12-25T05:51:28.233Z,61.30
2022-12-25T05:54:35.544Z,72.53
2022-12-25T05:57:41.676Z,153.83
2022-12-25T06:00:49.639Z,104.23
2022-12-25T06:03:56.021Z,62.50
2022-12-25T06:07:02.219Z,64.17
2022-12-25T06:10:09.779Z,36.07
2022-12-25T06:13:16.081Z,42.80
2022-12-25T06:16:23.691Z,33.47
2022-12-25T06:19:30.090Z,27.57
2022-12-25T06:22:36.312Z,30.20
2022-12-25T06:25:42.588Z,32.67
2022-12-25T06:28:49.209Z,61.77
2022-12-25T06:31:57.600Z,66.77
2022-12-25T06:35:04.372Z,87.67
2022-12-25T06:38:10.605Z,50.20
2022-12-25T06:41:18.899Z,47.23
2022-12-25T06:44:25.042Z,40.53
2022-12-25T06:47:32.386Z,44.80
2022-12-25T06:50:44.313Z,52.93
2022-12-25T06:53:52.128Z,76.83
2022-12-25T06:56:58.373Z,89.53
2022-12-25T07:00:05.054Z,118.23
2022-12-25T07:03:21.380Z,117.77
2022-12-25T07:06:28.506Z,86.63
2022-12-25T07:09:35.831Z,76.10
2022-12-25T07:12:41.924Z,103.03
2022-12-25T07:15:48.454Z,101.77
2022-12-25T07:18:56.259Z,98.80
2022-12-25T07:22:02.505Z,87.27
2022-12-25T07:25:09.591Z,104.57
2022-12-25T07:28:16.041Z,133.63
2022-12-25T07:31:22.671Z,136.93
2022-12-25T07:34:30.567Z,126.77
2022-12-25T07:37:36.718Z,182.93
2022-12-25T07:40:46.410Z,126.03
2022-12-25T07:43:53.057Z,151.27
2022-12-25T07:46:59.160Z,151.13
2022-12-25T07:50:08.896Z,157.23
2022-12-25T07:53:14.984Z,106.43
2022-12-25T07:56:21.898Z,100.00
2022-12-25T07:59:28.197Z,94.10
2022-12-25T08:02:34.556Z,143.63
2022-12-25T08:05:42.213Z,134.93
2022-12-25T08:08:48.900Z,109.00
2022-12-25T08:11:54.990Z,65.63
2022-12-25T08:15:01.268Z,31.10
2022-12-25T08:18:07.374Z,30.13
2022-12-25T08:21:16.041Z,26.33
2022-12-25T08:24:22.698Z,28.23
2022-12-25T08:27:29.322Z,52.77
2022-12-25T08:30:35.643Z,34.00
2022-12-25T08:33:41.649Z,37.40
2022-12-25T08:36:49.928Z,44.27
2022-12-25T08:39:56.408Z,32.63
2022-12-25T08:43:03.014Z,41.73
2022-12-25T08:46:09.753Z,48.97
2022-12-25T08:49:16.488Z,51.43
2022-12-25T08:52:24.035Z,41.50
2022-12-25T08:55:30.618Z,23.30
2022-12-25T08:58:37.252Z,13.77
2022-12-25T09:01:43.815Z,11.47
2022-12-25T09:04:50.544Z,6.87
2022-12-25T09:07:58.138Z,10.23
2022-12-25T09:11:04.474Z,7.80
2022-12-25T09:14:10.936Z,11.63
2022-12-25T09:17:16.747Z,12.53
2022-12-25T09:20:22.774Z,13.83
2022-12-25T09:23:33.645Z,7.33
2022-12-25T09:26:40.194Z,7.53
2022-12-25T09:29:46.207Z,5.70
2022-12-25T09:32:52.435Z,5.97
2022-12-25T09:36:00.451Z,3.73
2022-12-25T09:39:08.644Z,3.40
2022-12-25T09:42:18.479Z,5.23
2022-12-25T09:45:28.351Z,8.53
2022-12-25T09:48:36.951Z,6.20
2022-12-25T09:51:45.413Z,19.30
2022-12-25T09:54:59.182Z,17.50
2022-12-25T09:58:12.831Z,7.37
2022-12-25T10:01:27.393Z,9.77
2022-12-25T10:04:54.870Z,8.70
2022-12-25T10:08:08.905Z,16.03
2022-12-25T10:11:25.138Z,21.57
2022-12-25T10:14:37.805Z,14.53
2022-12-25T10:18:02.019Z,13.23
2022-12-25T10:21:13.334Z,8.77
2022-12-25T10:24:31.983Z,6.37
2022-12-25T10:27:42.842Z,7.90
2022-12-25T10:30:51.410Z,11.17
2022-12-25T10:33:59.536Z,12.53
2022-12-25T10:37:05.863Z,4.27
2022-12-25T10:40:31.214Z,7.47
2022-12-25T10:43:43.518Z,14.70
2022-12-25T10:46:51.279Z,9.73
2022-12-25T10:49:59.369Z,7.30
2022-12-25T10:53:09.531Z,10.23
2022-12-25T10:56:18.917Z,17.50
2022-12-25T10:59:27.845Z,21.37
2022-12-25T11:02:41.075Z,11.33
2022-12-25T11:05:51.529Z,15.10
2022-12-25T11:08:59.689Z,5.20
2022-12-25T11:12:06.902Z,13.33
2022-12-25T11:15:35.459Z,8.53
2022-12-25T11:18:49.979Z,8.97
2022-12-25T11:21:58.312Z,5.17
2022-12-25T11:25:13.511Z,6.37
2022-12-25T11:28:19.877Z,6.20
2022-12-25T11:31:36.635Z,4.67
2022-12-25T11:34:45.784Z,3.60
2022-12-25T11:37:53.532Z,4.43
2022-12-25T11:41:04.007Z,16.13
2022-12-25T11:44:26.664Z,5.27
2022-12-25T11:47:37.773Z,7.57
2022-12-25T11:50:48.067Z,9.00
2022-12-25T11:53:57.046Z,9.77
2022-12-25T11:57:07.654Z,5.47
2022-12-25T12:00:17.127Z,5.17
2022-12-25T12:03:28.628Z,15.07
2022-12-25T12:06:46.767Z,6.43
2022-12-25T12:09:59.672Z,8.80
2022-12-25T12:13:30.656Z,16.23
2022-12-25T12:16:37.380Z,14.93
2022-12-25T12:19:45.063Z,9.60
2022-12-25T12:22:51.950Z,5.43
2022-12-25T12:25:59.118Z,7.23
2022-12-25T12:29:08.438Z,11.87
2022-12-25T12:32:30.340Z,8.77
2022-12-25T12:35:41.263Z,9.67
2022-12-25T12:38:47.712Z,7.97
2022-12-25T12:41:54.906Z,8.83
2022-12-25T12:45:11.743Z,7.67
2022-12-25T12:48:26.348Z,7.50
2022-12-25T12:51:37.064Z,9.97
2022-12-25T12:54:57.196Z,11.03
2022-12-25T12:58:05.294Z,10.90
2022-12-25T13:01:21.890Z,6.70
2022-12-25T13:04:45.470Z,5.50
2022-12-25T13:08:04.135Z,14.00
2022-12-25T13:11:17.927Z,23.57
2022-12-25T13:14:25.838Z,8.63
2022-12-25T13:17:32.117Z,8.77
2022-12-25T13:20:46.197Z,10.73
2022-12-25T13:24:00.561Z,15.47
2022-12-25T13:27:23.123Z,10.33
2022-12-25T13:30:29.594Z,6.97
2022-12-25T13:33:36.386Z,9.77
2022-12-25T13:36:43.050Z,8.73
2022-12-25T13:39:53.324Z,10.83
2022-12-25T13:43:02.387Z,15.13
2022-12-25T13:46:09.049Z,7.47
2022-12-25T13:49:17.887Z,11.37
2022-12-25T13:52:29.746Z,14.13
2022-12-25T13:55:37.945Z,7.57
2022-12-25T13:58:45.242Z,9.73
2022-12-25T14:01:52.609Z,12.13
2022-12-25T14:04:58.937Z,12.57
2022-12-25T14:08:13.696Z,9.07
2022-12-25T14:11:23.988Z,11.53
2022-12-25T14:14:31.016Z,23.70
2022-12-25T14:17:37.334Z,17.07
2022-12-25T14:20:56.042Z,22.30
2022-12-25T14:24:02.596Z,19.40
2022-12-25T14:27:20.817Z,16.60
2022-12-25T14:30:30.263Z,7.23
2022-12-25T14:33:40.042Z,15.40
2022-12-25T14:36:46.790Z,478.60
2022-12-25T14:39:58.433Z,227.10
2022-12-25T14:43:22.296Z,184.77
2022-12-25T14:46:31.093Z,612.37
2022-12-25T14:49:38.156Z,209.97
2022-12-25T14:52:46.270Z,165.10
2022-12-25T14:55:55.118Z,84.43
2022-12-25T14:59:02.967Z,48.77
2022-12-25T15:02:20.375Z,28.37
2022-12-25T15:05:33.122Z,73.13
2022-12-25T15:08:41.301Z,82.00
2022-12-25T15:11:49.422Z,78.63
2022-12-25T15:14:57.296Z,79.23
2022-12-25T15:18:05.943Z,73.60
2022-12-25T15:21:17.367Z,72.67
2022-12-25T15:24:23.711Z,89.80
2022-12-25T15:27:29.958Z,88.23
2022-12-25T15:30:39.450Z,87.20
2022-12-25T15:33:45.970Z,57.43
2022-12-25T15:36:52.978Z,65.30
2022-12-25T15:39:59.585Z,37.60
2022-12-25T15:43:11.553Z,13.70
2022-12-25T15:46:30.366Z,18.27
2022-12-25T15:49:36.940Z,14.50
2022-12-25T15:52:43.219Z,24.03
2022-12-25T15:55:49.824Z,19.30
2022-12-25T15:58:56.368Z,27.03
2022-12-25T16:02:04.401Z,33.90
2022-12-25T16:05:11.190Z,37.30
2022-12-25T16:08:17.256Z,59.00
2022-12-25T16:11:23.399Z,97.87
2022-12-25T16:14:29.936Z,112.10
2022-12-25T16:17:37.890Z,98.43
2022-12-25T16:20:44.444Z,110.40
2022-12-25T16:23:50.811Z,108.57
2022-12-25T16:26:57.004Z,138.20
2022-12-25T16:30:04.434Z,104.67
2022-12-25T16:33:12.889Z,122.90
2022-12-25T16:36:23.549Z,86.63
2022-12-25T16:39:33.866Z,100.27
2022-12-25T16:42:40.509Z,95.50
2022-12-25T16:45:47.233Z,91.57
2022-12-25T16:48:56.461Z,92.63
2022-12-25T16:52:03.944Z,83.70
2022-12-25T16:55:11.066Z,118.23
2022-12-25T16:58:17.836Z,83.13
2022-12-25T17:01:24.515Z,86.77
2022-12-25T17:04:32.507Z,75.93
2022-12-25T17:07:39.315Z,88.80
2022-12-25T17:10:46.819Z,102.37
2022-12-25T17:13:53.045Z,94.03
2022-12-25T17:16:59.293Z,108.10
2022-12-25T17:20:08.536Z,101.70
2022-12-25T17:23:15.085Z,103.33
2022-12-25T17:26:21.407Z,83.50
2022-12-25T17:29:28.024Z,77.47
2022-12-25T17:32:35.674Z,60.73
2022-12-25T17:35:43.077Z,89.67
2022-12-25T17:38:50.271Z,96.50
2022-12-25T17:41:56.803Z,84.10
2022-12-25T17:45:02.847Z,95.90
2022-12-25T17:48:09.143Z,84.10
2022-12-25T17:51:18.392Z,102.33
2022-12-25T17:54:24.759Z,113.20
2022-12-25T17:57:30.935Z,93.90
2022-12-25T18:00:37.669Z,101.57
2022-12-25T18:03:44.931Z,69.77
2022-12-25T18:06:52.661Z,52.77
2022-12-25T18:09:59.175Z,46.73
2022-12-25T18:13:05.880Z,53.27
2022-12-25T18:16:13.654Z,78.03
2022-12-25T18:19:20.098Z,85.53
2022-12-25T18:22:28.142Z,135.47
2022-12-25T18:25:34.820Z,112.00
2022-12-25T18:28:42.822Z,151.00
2022-12-25T18:31:49.267Z,185.60
2022-12-25T18:34:55.917Z,194.70
2022-12-25T18:38:03.774Z,123.17
2022-12-25T18:41:11.609Z,140.37
2022-12-25T18:44:17.965Z,131.33
2022-12-25T18:47:24.435Z,155.67
2022-12-25T18:50:31.040Z,151.00
2022-12-25T18:53:38.732Z,145.87
2022-12-25T18:56:47.401Z,141.80
2022-12-25T18:59:56.713Z,145.33
2022-12-25T19:03:03.209Z,152.37
2022-12-25T19:06:10.029Z,128.17
2022-12-25T19:09:17.724Z,121.10
2022-12-25T19:12:25.391Z,115.13
2022-12-25T19:15:31.489Z,87.60
2022-12-25T19:18:37.973Z,95.43
2022-12-25T19:21:44.354Z,85.77
2022-12-25T19:24:52.213Z,62.13
2022-12-25T19:27:58.567Z,62.73
2022-12-25T19:31:07.633Z,64.53
2022-12-25T19:34:14.314Z,84.83
2022-12-25T19:37:20.467Z,70.57
2022-12-25T19:40:28.087Z,119.80
2022-12-25T19:43:36.697Z,107.50
2022-12-25T19:46:43.432Z,99.60
2022-12-25T19:49:53.209Z,130.07
2022-12-25T19:53:00.014Z,99.00
2022-12-25T19:56:07.880Z,144.20
2022-12-25T19:59:14.674Z,121.73
2022-12-25T20:02:21.152Z,138.63
2022-12-25T20:05:27.417Z,120.67
2022-12-25T20:08:33.818Z,79.33
2022-12-25T20:11:42.064Z,81.27
2022-12-25T20:14:49.494Z,55.43
2022-12-25T20:17:55.963Z,56.10
2022-12-25T20:21:02.909Z,68.70
2022-12-25T20:24:11.272Z,99.00
2022-12-25T20:27:19.055Z,79.87
2022-12-25T20:30:25.445Z,90.00
2022-12-25T20:33:31.529Z,65.50
2022-12-25T20:36:38.371Z,51.37
2022-12-25T20:39:45.259Z,74.50
2022-12-25T20:42:53.029Z,100.07
2022-12-25T20:45:59.862Z,117.63
2022-12-25T20:49:06.815Z,116.07
2022-12-25T20:52:13.421Z,125.77
2022-12-25T20:55:20.270Z,79.40
2022-12-25T20:58:28.228Z,58.57
2022-12-25T21:01:34.810Z,63.90
2022-12-25T21:04:41.337Z,48.43
2022-12-25T21:07:47.959Z,27.10
2022-12-25T21:11:00.799Z,33.87
2022-12-25T21:14:10.148Z,37.57
2022-12-25T21:17:16.309Z,31.10
2022-12-25T21:20:22.991Z,35.67
2022-12-25T21:23:30.561Z,36.43
2022-12-25T21:26:37.069Z,34.53
2022-12-25T21:29:44.825Z,36.70
2022-12-25T21:33:08.616Z,34.23
2022-12-25T21:36:17.571Z,27.13
2022-12-25T21:39:24.047Z,35.00
2022-12-25T21:42:32.134Z,54.07
2022-12-25T21:45:39.573Z,42.13
2022-12-25T21:48:46.410Z,109.27
2022-12-25T21:52:09.684Z,118.50
2022-12-25T21:55:16.296Z,34.20
2022-12-25T21:58:22.625Z,31.83
2022-12-25T22:01:31.667Z,32.80
2022-12-25T22:04:38.034Z,26.47
2022-12-25T22:07:43.413Z,24.03
2022-12-25T22:10:50.003Z,13.10
2022-12-25T22:14:13.858Z,9.63
2022-12-25T22:17:41.596Z,8.37
2022-12-25T22:20:47.622Z,10.87
2022-12-25T22:23:53.695Z,13.20
2022-12-25T22:27:00.076Z,17.90
2022-12-25T22:30:08.158Z,35.30
2022-12-25T22:33:16.080Z,68.13
2022-12-25T22:36:23.650Z,90.30
2022-12-25T22:39:31.622Z,47.97
2022-12-25T22:42:37.862Z,19.27
2022-12-25T22:45:44.276Z,19.63
2022-12-25T22:48:52.132Z,17.33
2022-12-25T22:51:58.973Z,28.30
2022-12-25T22:55:06.019Z,48.70
2022-12-25T22:58:12.299Z,114.53
2022-12-25T23:01:18.493Z,70.93
2022-12-25T23:04:26.319Z,39.27
2022-12-25T23:07:33.000Z,40.93
2022-12-25T23:10:39.422Z,25.03
2022-12-25T23:14:03.535Z,38.80
2022-12-25T23:17:25.952Z,23.70
2022-12-25T23:20:51.843Z,13.87
2022-12-25T23:24:15.687Z,14.37
2022-12-25T23:27:22.115Z,13.13
2022-12-25T23:30:28.580Z,20.03
2022-12-25T23:33:34.689Z,19.97
2022-12-25T23:36:42.732Z,31.60
2022-12-25T23:39:50.285Z,26.80
2022-12-25T23:42:56.553Z,34.33
2022-12-25T23:46:03.107Z,35.63
2022-12-25T23:49:10.394Z,44.73
2022-12-25T23:52:18.923Z,39.90
2022-12-25T23:55:25.807Z,37.03
2022-12-25T23:58:32.250Z,41.00
